createdAt,value
2018-11-29T00:00:40.203Z,7.23
2018-11-29T00:03:07.646Z,7.10
2018-11-29T00:05:35.115Z,8.20
2018-11-29T00:08:02.563Z,7.60
2018-11-29T00:10:30.020Z,7.83
2018-11-29T00:12:57.482Z,7.80
2018-11-29T00:15:24.916Z,7.03
2018-11-29T00:17:52.411Z,5.10
2018-11-29T00:20:19.828Z,6.93
2018-11-29T00:22:47.265Z,6.30
2018-11-29T00:25:15.610Z,6.87
2018-11-29T00:27:43.132Z,6.57
2018-11-29T00:30:10.591Z,7.07
2018-11-29T00:32:38.050Z,7.43
2018-11-29T00:35:05.457Z,7.10
2018-11-29T00:37:32.921Z,6.67
2018-11-29T00:40:00.360Z,7.00
2018-11-29T00:42:27.798Z,6.40
2018-11-29T00:44:55.250Z,6.60
2018-11-29T00:47:23.885Z,6.30
2018-11-29T00:49:52.430Z,6.87
2018-11-29T00:52:19.984Z,6.57
2018-11-29T00:54:47.435Z,6.23
2018-11-29T00:57:14.898Z,6.33
2018-11-29T00:59:42.357Z,5.63
2018-11-29T01:02:09.823Z,6.77
2018-11-29T01:04:37.278Z,6.00
2018-11-29T01:07:04.743Z,6.40
2018-11-29T01:09:33.359Z,6.13
2018-11-29T01:12:00.786Z,6.20
2018-11-29T01:14:28.206Z,6.40
2018-11-29T01:16:55.679Z,6.20
2018-11-29T01:19:23.159Z,6.17
2018-11-29T01:21:50.604Z,5.10
2018-11-29T01:24:18.019Z,6.23
2018-11-29T01:26:45.464Z,6.93
2018-11-29T01:29:13.982Z,6.27
2018-11-29T01:31:41.443Z,6.40
2018-11-29T01:34:08.934Z,5.90
2018-11-29T01:36:36.380Z,6.80
2018-11-29T01:39:03.814Z,6.33
2018-11-29T01:41:31.258Z,6.83
2018-11-29T01:43:58.699Z,5.80
2018-11-29T01:46:26.900Z,4.47
2018-11-29T01:48:54.337Z,7.13
2018-11-29T01:51:21.773Z,7.80
2018-11-29T01:53:49.210Z,6.77
2018-11-29T01:56:16.642Z,7.27
2018-11-29T01:58:44.091Z,6.73
2018-11-29T02:01:11.506Z,4.57
2018-11-29T02:03:38.949Z,6.43
2018-11-29T02:06:06.369Z,5.67
2018-11-29T02:08:33.816Z,6.57
2018-11-29T02:11:01.260Z,7.47
2018-11-29T02:13:28.691Z,6.87
2018-11-29T02:15:56.140Z,4.70
2018-11-29T02:18:23.595Z,6.00
2018-11-29T02:20:52.060Z,6.30
2018-11-29T02:23:19.560Z,5.77
2018-11-29T02:25:46.996Z,6.00
2018-11-29T02:28:14.431Z,6.17
2018-11-29T02:30:43.050Z,6.47
2018-11-29T02:33:10.494Z,5.10
2018-11-29T02:35:37.942Z,6.33
2018-11-29T02:38:05.377Z,6.60
2018-11-29T02:40:32.818Z,6.50
2018-11-29T02:43:00.253Z,6.10
2018-11-29T02:45:27.667Z,5.87
2018-11-29T02:47:55.113Z,6.70
2018-11-29T02:50:22.548Z,6.03
2018-11-29T02:52:50.024Z,6.30
2018-11-29T02:55:17.468Z,5.97
2018-11-29T02:57:44.908Z,7.27
2018-11-29T03:00:12.350Z,6.27
2018-11-29T03:02:39.796Z,6.33
2018-11-29T03:05:08.460Z,6.70
2018-11-29T03:07:37.625Z,6.50
2018-11-29T03:10:05.192Z,5.57
2018-11-29T03:12:33.854Z,7.17
2018-11-29T03:15:01.277Z,7.37
2018-11-29T03:17:29.942Z,7.40
2018-11-29T03:19:58.639Z,6.67
2018-11-29T03:22:27.272Z,6.43
2018-11-29T03:24:54.728Z,6.83
2018-11-29T03:27:22.179Z,6.47
2018-11-29T03:29:49.618Z,7.07
2018-11-29T03:32:17.243Z,7.33
2018-11-29T03:34:44.577Z,6.97
2018-11-29T03:37:12.014Z,7.30
2018-11-29T03:39:39.497Z,6.87
2018-11-29T03:42:06.965Z,7.43
2018-11-29T03:44:34.401Z,6.83
2018-11-29T03:47:01.879Z,6.87
2018-11-29T03:49:29.327Z,7.77
2018-11-29T03:51:56.775Z,5.73
2018-11-29T03:54:24.230Z,7.73
2018-11-29T03:56:51.689Z,6.47
2018-11-29T03:59:19.131Z,7.43
2018-11-29T04:01:46.837Z,6.37
2018-11-29T04:04:14.284Z,7.83
2018-11-29T04:06:41.716Z,7.10
2018-11-29T04:09:09.131Z,7.87
2018-11-29T04:11:36.570Z,7.33
2018-11-29T04:14:04.001Z,8.87
2018-11-29T04:16:31.440Z,6.67
2018-11-29T04:18:58.853Z,8.43
2018-11-29T04:21:26.305Z,8.97
2018-11-29T04:23:53.751Z,7.00
2018-11-29T04:26:21.211Z,8.87
2018-11-29T04:28:48.649Z,9.63
2018-11-29T04:31:16.085Z,9.80
2018-11-29T04:33:45.233Z,10.03
2018-11-29T04:36:12.694Z,9.20
2018-11-29T04:38:40.161Z,9.20
2018-11-29T04:41:07.597Z,9.77
2018-11-29T04:43:35.065Z,8.80
2018-11-29T04:46:25.120Z,10.00
2018-11-29T04:48:52.628Z,7.80
2018-11-29T04:51:20.058Z,8.67
2018-11-29T04:53:47.521Z,9.33
2018-11-29T04:56:14.963Z,8.80
2018-11-29T04:58:42.399Z,10.10
2018-11-29T05:01:09.816Z,10.00
2018-11-29T05:03:37.247Z,9.53
2018-11-29T05:06:04.687Z,8.97
2018-11-29T05:08:32.143Z,10.57
2018-11-29T05:10:59.594Z,7.07
2018-11-29T05:13:27.049Z,10.37
2018-11-29T05:15:54.506Z,9.87
2018-11-29T05:18:21.930Z,10.53
2018-11-29T05:20:49.361Z,9.70
2018-11-29T05:23:16.776Z,5.47
2018-11-29T05:25:44.227Z,11.27
2018-11-29T05:28:11.658Z,9.00
2018-11-29T05:30:39.099Z,10.63
2018-11-29T05:33:06.538Z,10.70
2018-11-29T05:35:33.953Z,9.90
2018-11-29T05:38:01.408Z,10.23
2018-11-29T05:40:28.847Z,9.23
2018-11-29T05:42:56.305Z,7.00
2018-11-29T05:45:23.744Z,10.27
2018-11-29T05:47:51.159Z,10.20
2018-11-29T05:50:18.599Z,9.93
2018-11-29T05:52:46.032Z,10.10
2018-11-29T05:55:13.515Z,8.23
2018-11-29T05:57:40.955Z,10.57
2018-11-29T06:00:08.388Z,9.47
2018-11-29T06:02:35.879Z,9.00
2018-11-29T06:05:03.337Z,9.97
2018-11-29T06:07:31.979Z,10.27
2018-11-29T06:09:59.411Z,9.53
2018-11-29T06:12:26.829Z,10.63
2018-11-29T06:14:54.286Z,9.77
2018-11-29T06:17:21.724Z,10.10
2018-11-29T06:19:49.193Z,10.67
2018-11-29T06:22:16.664Z,10.13
2018-11-29T06:24:44.138Z,9.40
2018-11-29T06:27:11.561Z,8.20
2018-11-29T06:29:39.977Z,9.33
2018-11-29T06:32:07.472Z,8.27
2018-11-29T06:34:34.930Z,10.50
2018-11-29T06:37:02.365Z,6.43
2018-11-29T06:39:29.777Z,7.73
2018-11-29T06:41:57.212Z,8.50
2018-11-29T06:44:24.645Z,7.63
2018-11-29T06:46:52.097Z,9.03
2018-11-29T06:49:19.550Z,9.53
2018-11-29T06:51:46.989Z,10.17
2018-11-29T06:54:14.437Z,10.53
2018-11-29T06:56:41.885Z,10.90
2018-11-29T06:59:09.330Z,9.63
2018-11-29T07:01:36.763Z,8.73
2018-11-29T07:04:05.194Z,6.13
2018-11-29T07:06:32.754Z,8.47
2018-11-29T07:09:00.183Z,9.13
2018-11-29T07:11:27.626Z,7.73
2018-11-29T07:13:55.089Z,8.20
2018-11-29T07:16:22.527Z,8.77
2018-11-29T07:18:49.953Z,4.93
2018-11-29T07:21:38.898Z,7.73
2018-11-29T07:24:06.343Z,8.07
2018-11-29T07:26:34.469Z,8.67
2018-11-29T07:29:02.027Z,7.60
2018-11-29T07:31:29.459Z,7.80
2018-11-29T07:33:56.897Z,6.83
2018-11-29T07:36:24.324Z,8.60
2018-11-29T07:38:51.774Z,7.07
2018-11-29T07:41:19.226Z,8.07
2018-11-29T07:43:46.643Z,8.07
2018-11-29T07:46:14.074Z,7.40
2018-11-29T07:48:41.509Z,8.70
2018-11-29T07:51:08.974Z,8.83
2018-11-29T07:53:36.403Z,7.93
2018-11-29T07:56:03.862Z,8.87
2018-11-29T07:58:31.284Z,6.77
2018-11-29T08:00:59.245Z,7.47
2018-11-29T08:03:26.756Z,6.50
2018-11-29T08:05:54.213Z,6.17
2018-11-29T08:08:21.748Z,8.40
2018-11-29T08:10:49.194Z,6.40
2018-11-29T08:13:16.646Z,4.70
2018-11-29T08:15:44.114Z,6.37
2018-11-29T08:18:11.574Z,8.27
2018-11-29T08:20:39.025Z,7.10
2018-11-29T08:23:06.459Z,8.27
2018-11-29T08:25:33.889Z,6.97
2018-11-29T08:28:01.343Z,7.83
2018-11-29T08:30:28.764Z,7.63
2018-11-29T08:32:56.216Z,8.37
2018-11-29T08:35:23.652Z,7.57
2018-11-29T08:37:51.098Z,5.50
2018-11-29T08:40:18.558Z,6.80
2018-11-29T08:42:46.000Z,7.27
2018-11-29T08:45:13.436Z,7.10
2018-11-29T08:47:40.883Z,6.83
2018-11-29T08:50:08.305Z,6.80
2018-11-29T08:52:35.782Z,6.23
2018-11-29T08:55:03.228Z,7.23
2018-11-29T08:57:30.682Z,6.90
2018-11-29T08:59:58.121Z,7.47
2018-11-29T09:02:25.562Z,5.43
2018-11-29T09:04:53.020Z,7.87
2018-11-29T09:07:20.430Z,5.63
2018-11-29T09:09:47.894Z,6.93
2018-11-29T09:12:15.333Z,7.70
2018-11-29T09:14:42.804Z,5.97
2018-11-29T09:17:10.355Z,7.30
2018-11-29T09:19:37.741Z,7.60
2018-11-29T09:22:05.235Z,7.20
2018-11-29T09:24:32.670Z,7.07
2018-11-29T09:27:00.134Z,6.97
2018-11-29T09:29:27.569Z,7.63
2018-11-29T09:31:55.037Z,6.93
2018-11-29T09:34:22.497Z,5.90
2018-11-29T09:36:49.945Z,7.17
2018-11-29T09:39:17.416Z,6.97
2018-11-29T09:41:44.849Z,7.27
2018-11-29T09:44:12.275Z,6.93
2018-11-29T09:46:39.726Z,6.80
2018-11-29T10:06:09.978Z,7.37
2018-11-29T10:08:37.439Z,6.50
2018-11-29T10:11:04.906Z,5.83
2018-11-29T10:13:32.371Z,6.50
2018-11-29T10:15:59.801Z,6.50
2018-11-29T10:18:27.248Z,6.77
2018-11-29T10:20:54.689Z,6.50
2018-11-29T10:23:22.136Z,6.47
2018-11-29T10:25:49.573Z,6.37
2018-11-29T10:28:17.038Z,7.83
2018-11-29T10:30:44.487Z,7.10
2018-11-29T10:33:11.959Z,5.07
2018-11-29T10:35:39.381Z,6.17
2018-11-29T10:38:06.835Z,7.77
2018-11-29T10:40:34.784Z,6.50
2018-11-29T10:43:02.248Z,5.93
2018-11-29T10:45:29.787Z,7.40
2018-11-29T10:47:57.177Z,7.07
2018-11-29T10:50:24.711Z,6.80
2018-11-29T10:52:52.111Z,6.07
2018-11-29T10:55:19.583Z,5.30
2018-11-29T10:57:47.031Z,5.53
2018-11-29T11:00:14.477Z,5.67
2018-11-29T11:02:41.968Z,6.00
2018-11-29T11:05:09.453Z,5.73
2018-11-29T11:07:36.890Z,5.27
2018-11-29T11:10:04.353Z,6.00
2018-11-29T11:12:31.842Z,3.77
2018-11-29T11:14:59.278Z,5.37
2018-11-29T11:17:26.755Z,5.97
2018-11-29T11:19:54.201Z,5.73
2018-11-29T11:22:21.644Z,6.33
2018-11-29T11:24:49.125Z,5.80
2018-11-29T11:27:16.558Z,6.20
2018-11-29T11:29:44.039Z,6.20
2018-11-29T11:32:11.487Z,6.53
2018-11-29T11:34:38.951Z,5.87
2018-11-29T11:37:06.402Z,6.47
2018-11-29T11:39:33.874Z,6.00
2018-11-29T11:42:01.334Z,6.43
2018-11-29T11:44:28.786Z,7.00
2018-11-29T11:46:56.277Z,6.17
2018-11-29T11:49:23.832Z,7.77
2018-11-29T11:51:51.314Z,5.17
2018-11-29T11:54:18.780Z,6.20
2018-11-29T11:56:46.312Z,6.83
2018-11-29T11:59:15.821Z,6.13
2018-11-29T12:01:43.360Z,7.27
2018-11-29T12:04:10.825Z,5.63
2018-11-29T12:06:38.296Z,7.00
2018-11-29T12:09:05.803Z,6.90
2018-11-29T12:11:33.320Z,6.90
2018-11-29T12:14:00.748Z,6.77
2018-11-29T12:16:28.225Z,5.30
2018-11-29T12:19:02.092Z,5.90
2018-11-29T12:21:23.405Z,6.93
2018-11-29T12:23:50.832Z,6.70
2018-11-29T12:26:18.292Z,7.07
2018-11-29T12:28:45.775Z,5.40
2018-11-29T12:31:13.234Z,5.77
2018-11-29T12:33:40.681Z,3.93
2018-11-29T12:36:08.191Z,5.07
2018-11-29T12:38:35.636Z,6.93
2018-11-29T12:41:03.123Z,7.13
2018-11-29T12:43:30.546Z,4.73
2018-11-29T12:45:57.975Z,4.93
2018-11-29T12:48:25.437Z,4.97
2018-11-29T12:50:52.886Z,4.70
2018-11-29T13:10:23.729Z,5.50
2018-11-29T13:12:50.190Z,6.50
2018-11-29T13:15:17.729Z,5.77
2018-11-29T13:17:45.125Z,4.90
2018-11-29T13:20:12.563Z,6.80
2018-11-29T13:22:40.028Z,7.83
2018-11-29T13:25:07.476Z,10.53
2018-11-29T13:27:34.927Z,6.47
2018-11-29T13:30:02.406Z,6.67
2018-11-29T13:32:29.852Z,7.77
2018-11-29T13:34:57.312Z,7.13
2018-11-29T13:37:24.818Z,7.47
2018-11-29T13:39:52.279Z,6.97
2018-11-29T13:42:19.751Z,4.10
2018-11-29T13:44:47.293Z,7.10
2018-11-29T13:47:14.647Z,7.13
2018-11-29T13:49:42.100Z,6.77
2018-11-29T13:52:09.540Z,7.00
2018-11-29T13:54:36.992Z,6.07
2018-11-29T13:57:04.447Z,5.50
2018-11-29T13:59:31.904Z,6.80
2018-11-29T14:01:59.375Z,6.50
2018-11-29T14:04:26.848Z,6.40
2018-11-29T14:06:55.097Z,7.07
2018-11-29T14:09:22.644Z,5.80
2018-11-29T14:11:50.076Z,6.30
2018-11-29T14:14:17.539Z,7.40
2018-11-29T14:16:44.998Z,4.97
2018-11-29T14:19:12.464Z,6.87
2018-11-29T14:21:39.906Z,6.53
2018-11-29T14:24:07.327Z,6.07
2018-11-29T14:26:34.797Z,6.23
2018-11-29T14:29:02.242Z,5.80
2018-11-29T14:31:29.676Z,5.43
2018-11-29T14:33:57.137Z,6.30
2018-11-29T14:36:24.573Z,6.17
2018-11-29T14:38:52.011Z,5.60
2018-11-29T14:41:19.491Z,5.93
2018-11-29T14:43:46.958Z,5.70
2018-11-29T14:46:14.469Z,4.70
2018-11-29T14:48:41.953Z,5.73
2018-11-29T14:51:09.411Z,3.50
2018-11-29T14:53:37.957Z,4.90
2018-11-29T14:56:05.401Z,5.20
2018-11-29T14:58:32.852Z,3.37
2018-11-29T15:01:00.271Z,4.73
2018-11-29T15:03:27.724Z,5.30
2018-11-29T15:05:55.165Z,2.90
2018-11-29T15:08:22.631Z,4.93
2018-11-29T15:10:50.042Z,3.47
2018-11-29T15:13:17.481Z,5.43
2018-11-29T15:15:45.843Z,4.53
2018-11-29T15:18:13.359Z,5.43
2018-11-29T15:20:40.830Z,5.53
2018-11-29T15:23:08.251Z,5.33
2018-11-29T15:25:35.707Z,5.00
2018-11-29T15:28:03.147Z,5.10
2018-11-29T15:30:30.614Z,5.87
2018-11-29T15:32:58.066Z,5.60
2018-11-29T15:35:25.547Z,5.33
2018-11-29T15:37:53.003Z,5.70
2018-11-29T15:40:20.491Z,5.93
2018-11-29T15:42:48.471Z,5.70
2018-11-29T15:45:15.919Z,6.00
2018-11-29T15:47:43.363Z,4.30
2018-11-29T15:50:10.818Z,5.67
2018-11-29T15:52:38.278Z,4.57
2018-11-29T15:55:05.705Z,5.17
2018-11-29T15:57:34.989Z,5.50
2018-11-29T16:00:00.579Z,5.77
2018-11-29T16:02:28.029Z,7.03
2018-11-29T16:04:56.619Z,4.60
2018-11-29T16:07:24.178Z,5.90
2018-11-29T16:09:51.613Z,6.73
2018-11-29T16:12:19.072Z,5.67
2018-11-29T16:14:46.511Z,5.03
2018-11-29T16:17:13.955Z,5.27
2018-11-29T16:19:41.411Z,7.33
2018-11-29T16:22:08.885Z,7.07
2018-11-29T16:24:36.331Z,6.27
2018-11-29T16:27:03.808Z,6.90
2018-11-29T16:29:31.265Z,6.57
2018-11-29T16:31:58.735Z,6.30
2018-11-29T16:34:26.165Z,6.20
2018-11-29T16:36:53.572Z,7.50
2018-11-29T16:39:21.009Z,5.93
2018-11-29T16:41:48.429Z,6.80
2018-11-29T16:44:15.886Z,5.27
2018-11-29T16:46:43.360Z,5.90
2018-11-29T16:49:10.787Z,5.37
2018-11-29T16:51:38.243Z,6.63
2018-11-29T16:56:43.499Z,7.47
2018-11-29T16:59:10.941Z,6.90
2018-11-29T17:01:38.467Z,5.73
2018-11-29T17:04:06.730Z,6.30
2018-11-29T17:06:34.226Z,6.00
2018-11-29T17:09:01.697Z,5.70
2018-11-29T17:11:29.906Z,5.50
2018-11-29T17:13:57.439Z,5.83
2018-11-29T17:16:26.091Z,6.00
2018-11-29T17:18:53.556Z,5.47
2018-11-29T17:21:24.725Z,6.87
2018-11-29T17:23:52.168Z,3.90
2018-11-29T17:26:21.891Z,5.80
2018-11-29T17:28:49.364Z,6.10
2018-11-29T17:31:16.802Z,5.87
2018-11-29T17:33:44.295Z,6.03
2018-11-29T17:36:12.854Z,6.33
2018-11-29T17:38:41.970Z,6.63
2018-11-29T17:41:09.513Z,6.13
2018-11-29T17:43:36.947Z,5.87
2018-11-29T17:46:04.367Z,6.80
2018-11-29T17:48:31.827Z,6.63
2018-11-29T17:51:00.154Z,5.57
2018-11-29T17:53:27.701Z,7.00
2018-11-29T17:55:55.160Z,6.50
2018-11-29T17:58:22.630Z,6.43
2018-11-29T18:00:50.060Z,6.83
2018-11-29T18:03:17.519Z,5.47
2018-11-29T18:05:44.968Z,5.33
2018-11-29T18:08:12.436Z,6.37
2018-11-29T18:10:39.901Z,7.33
2018-11-29T18:13:07.341Z,6.50
2018-11-29T18:15:34.774Z,5.47
2018-11-29T18:18:02.212Z,7.10
2018-11-29T18:20:29.654Z,6.43
2018-11-29T18:22:57.096Z,6.47
2018-11-29T18:25:24.528Z,6.67
2018-11-29T18:27:51.963Z,6.40
2018-11-29T18:30:19.418Z,6.10
2018-11-29T18:32:46.856Z,5.70
2018-11-29T18:35:14.311Z,6.67
2018-11-29T18:37:41.780Z,5.60
2018-11-29T18:40:10.451Z,7.20
2018-11-29T18:42:37.957Z,6.13
2018-11-29T18:45:05.388Z,5.63
2018-11-29T18:47:32.819Z,7.03
2018-11-29T18:50:00.265Z,6.03
2018-11-29T18:52:27.728Z,6.30
2018-11-29T18:54:55.144Z,6.40
2018-11-29T19:14:25.164Z,6.23
2018-11-29T19:16:52.582Z,6.73
2018-11-29T19:19:20.086Z,3.83
2018-11-29T19:21:47.559Z,6.90
2018-11-29T19:24:16.258Z,7.20
2018-11-29T19:26:43.837Z,6.07
2018-11-29T19:29:11.353Z,6.60
2018-11-29T19:31:38.814Z,6.40
2018-11-29T19:34:06.247Z,6.87
2018-11-29T19:36:33.715Z,6.83
2018-11-29T19:39:01.137Z,6.33
2018-11-29T19:41:28.611Z,7.07
2018-11-29T19:43:57.275Z,6.77
2018-11-29T19:46:24.642Z,6.67
2018-11-29T19:48:52.113Z,7.03
2018-11-29T19:51:19.564Z,7.07
2018-11-29T19:53:47.024Z,6.83
2018-11-29T19:56:14.482Z,5.80
2018-11-29T19:58:41.967Z,6.57
2018-11-29T20:01:10.606Z,6.80
2018-11-29T20:03:38.069Z,6.80
2018-11-29T20:06:05.522Z,6.43
2018-11-29T20:08:32.995Z,6.43
2018-11-29T20:11:00.444Z,7.10
2018-11-29T20:13:27.893Z,7.53
2018-11-29T20:15:56.556Z,6.83
2018-11-29T20:18:23.990Z,6.53
2018-11-29T20:20:51.463Z,7.10
2018-11-29T20:23:18.925Z,6.73
2018-11-29T20:25:46.378Z,8.63
2018-11-29T20:28:14.900Z,6.87
2018-11-29T20:30:42.330Z,7.80
2018-11-29T20:33:10.479Z,6.77
2018-11-29T20:35:38.123Z,7.13
2018-11-29T20:38:05.637Z,7.60
2018-11-29T20:40:33.071Z,7.27
2018-11-29T20:43:00.507Z,7.03
2018-11-29T20:45:28.032Z,7.47
2018-11-29T20:47:55.408Z,5.80
2018-11-29T20:50:22.876Z,7.10
2018-11-29T20:52:50.334Z,6.53
2018-11-29T20:55:17.767Z,6.53
2018-11-29T20:57:46.213Z,6.20
2018-11-29T21:00:13.725Z,6.63
2018-11-29T21:02:41.214Z,7.50
2018-11-29T21:05:08.664Z,6.53
2018-11-29T21:07:36.105Z,6.20
2018-11-29T21:10:03.531Z,6.67
2018-11-29T21:12:31.005Z,7.43
2018-11-29T21:14:59.530Z,6.57
2018-11-29T21:17:26.996Z,6.53
2018-11-29T21:19:55.617Z,6.67
2018-11-29T21:22:23.074Z,6.30
2018-11-29T21:24:50.516Z,5.83
2018-11-29T21:27:21.720Z,6.23
2018-11-29T21:29:49.182Z,6.23
2018-11-29T21:32:16.656Z,5.60
2018-11-29T21:34:44.099Z,7.27
2018-11-29T21:37:11.532Z,6.50
2018-11-29T21:39:39.422Z,6.33
2018-11-29T21:42:06.901Z,6.80
2018-11-29T21:44:34.361Z,6.70
2018-11-29T21:47:01.861Z,5.90
2018-11-29T21:49:29.330Z,5.90
2018-11-29T21:51:56.766Z,6.00
2018-11-29T21:54:24.220Z,6.43
2018-11-29T21:56:51.727Z,6.77
2018-11-29T21:59:19.212Z,6.50
2018-11-29T22:01:46.693Z,5.97
2018-11-29T22:04:14.129Z,5.87
2018-11-29T22:06:41.562Z,6.80
2018-11-29T22:09:09.002Z,6.43
2018-11-29T22:11:36.769Z,6.30
2018-11-29T22:14:04.236Z,6.90
2018-11-29T22:16:31.685Z,7.20
2018-11-29T22:18:59.156Z,6.10
2018-11-29T22:21:26.624Z,6.47
2018-11-29T22:23:54.079Z,6.03
2018-11-29T22:26:21.519Z,6.10
2018-11-29T22:28:48.962Z,6.10
2018-11-29T22:31:16.412Z,6.03
2018-11-29T22:33:43.876Z,6.13
2018-11-29T22:36:11.396Z,6.60
2018-11-29T22:38:38.820Z,6.13
2018-11-29T22:41:06.269Z,6.40
2018-11-29T22:43:33.703Z,6.27
2018-11-29T22:46:01.164Z,6.00
2018-11-29T22:48:28.586Z,6.37
2018-11-29T22:50:56.031Z,5.30
2018-11-29T22:53:23.476Z,6.47
2018-11-29T22:55:50.942Z,5.37
2018-11-29T22:58:18.394Z,5.23
2018-11-29T23:00:45.806Z,5.67
2018-11-29T23:03:13.281Z,4.87
2018-11-29T23:05:40.752Z,5.50
2018-11-29T23:08:08.194Z,5.00
2018-11-29T23:10:35.653Z,5.37
2018-11-29T23:13:04.010Z,5.03
2018-11-29T23:15:31.588Z,4.87
2018-11-29T23:18:00.121Z,5.17
2018-11-29T23:20:27.599Z,5.30
2018-11-29T23:22:55.043Z,4.63
2018-11-29T23:25:22.537Z,5.17
2018-11-29T23:27:50.896Z,5.90
2018-11-29T23:30:18.381Z,4.80
2018-11-29T23:32:45.845Z,5.03
2018-11-29T23:35:13.312Z,5.10
2018-11-29T23:37:41.913Z,5.70
2018-11-29T23:40:09.356Z,5.57
2018-11-29T23:42:36.844Z,5.80
2018-11-29T23:45:04.263Z,5.30
2018-11-29T23:47:31.706Z,5.63
2018-11-29T23:49:59.122Z,5.27
2018-11-29T23:52:26.883Z,5.47
2018-11-29T23:54:54.464Z,5.87
2018-11-29T23:57:22.975Z,5.33
2018-11-29T23:59:50.461Z,4.80
